sensor_id;sensor_type;location;lat;lon;timestamp;pressure;altitude;pressure_sealevel;temperature;humidity
42887;BME280;29032;56.028;92.904;2023-12-20T00:03:12;101363.03;;;-23.94;34.48
42887;BME280;29032;56.028;92.904;2023-12-20T00:08:16;101367.47;;;-23.90;34.40
42887;BME280;29032;56.028;92.904;2023-12-20T00:13:18;101357.59;;;-23.74;34.17
42887;BME280;29032;56.028;92.904;2023-12-20T00:18:21;101359.00;;;-23.58;34.32
42887;BME280;29032;56.028;92.904;2023-12-20T00:23:24;101354.06;;;-23.40;33.80
42887;BME280;29032;56.028;92.904;2023-12-20T00:28:27;101351.38;;;-23.35;34.24
42887;BME280;29032;56.028;92.904;2023-12-20T00:33:29;101347.94;;;-23.36;34.12
42887;BME280;29032;56.028;92.904;2023-12-20T00:38:32;101334.00;;;-23.46;33.88
42887;BME280;29032;56.028;92.904;2023-12-20T00:43:35;101342.31;;;-23.58;34.27
42887;BME280;29032;56.028;92.904;2023-12-20T00:48:37;101343.47;;;-23.69;34.20
42887;BME280;29032;56.028;92.904;2023-12-20T00:53:41;101349.72;;;-23.84;34.21
42887;BME280;29032;56.028;92.904;2023-12-20T00:58:43;101350.56;;;-23.89;33.94
42887;BME280;29032;56.028;92.904;2023-12-20T01:03:45;101351.94;;;-23.96;34.25
42887;BME280;29032;56.028;92.904;2023-12-20T01:08:49;101344.00;;;-23.96;34.02
42887;BME280;29032;56.028;92.904;2023-12-20T01:13:51;101343.94;;;-23.91;34.63
42887;BME280;29032;56.028;92.904;2023-12-20T01:18:53;101340.78;;;-23.93;34.42
42887;BME280;29032;56.028;92.904;2023-12-20T01:23:57;101335.41;;;-23.83;34.01
42887;BME280;29032;56.028;92.904;2023-12-20T01:28:59;101343.78;;;-23.71;33.57
42887;BME280;29032;56.028;92.904;2023-12-20T01:34:01;101335.97;;;-23.86;34.31
42887;BME280;29032;56.028;92.904;2023-12-20T01:39:05;101331.16;;;-23.79;34.00
42887;BME280;29032;56.028;92.904;2023-12-20T01:44:07;101314.53;;;-23.90;33.98
42887;BME280;29032;56.028;92.904;2023-12-20T01:49:09;101330.22;;;-23.98;34.27
42887;BME280;29032;56.028;92.904;2023-12-20T01:54:13;101326.63;;;-24.13;34.19
42887;BME280;29032;56.028;92.904;2023-12-20T01:59:15;101332.50;;;-24.16;33.78
42887;BME280;29032;56.028;92.904;2023-12-20T02:04:18;101341.09;;;-24.00;33.95
42887;BME280;29032;56.028;92.904;2023-12-20T02:09:22;101350.75;;;-23.80;34.19
42887;BME280;29032;56.028;92.904;2023-12-20T02:14:24;101336.31;;;-23.69;34.53
42887;BME280;29032;56.028;92.904;2023-12-20T02:19:27;101309.19;;;-23.56;33.84
42887;BME280;29032;56.028;92.904;2023-12-20T02:24:30;101315.19;;;-23.45;34.00
42887;BME280;29032;56.028;92.904;2023-12-20T02:29:33;101308.00;;;-23.39;33.44
42887;BME280;29032;56.028;92.904;2023-12-20T02:34:35;101303.69;;;-23.35;34.25
42887;BME280;29032;56.028;92.904;2023-12-20T02:39:39;101297.41;;;-23.39;34.01
42887;BME280;29032;56.028;92.904;2023-12-20T02:44:41;101300.41;;;-23.27;33.46
42887;BME280;29032;56.028;92.904;2023-12-20T02:49:43;101267.06;;;-23.28;34.03
42887;BME280;29032;56.028;92.904;2023-12-20T02:54:47;101278.69;;;-23.24;34.08
42887;BME280;29032;56.028;92.904;2023-12-20T02:59:49;101275.00;;;-23.04;34.36
42887;BME280;29032;56.028;92.904;2023-12-20T03:04:51;101275.00;;;-22.85;34.40
42887;BME280;29032;56.028;92.904;2023-12-20T03:09:55;101255.97;;;-22.87;34.73
42887;BME280;29032;56.028;92.904;2023-12-20T03:14:57;101256.09;;;-22.60;34.47
42887;BME280;29032;56.028;92.904;2023-12-20T03:20:00;101253.16;;;-22.58;34.15
42887;BME280;29032;56.028;92.904;2023-12-20T03:25:04;101236.72;;;-22.42;34.27
42887;BME280;29032;56.028;92.904;2023-12-20T03:30:07;101224.72;;;-22.20;34.46
42887;BME280;29032;56.028;92.904;2023-12-20T03:35:09;101217.38;;;-22.10;34.14
42887;BME280;29032;56.028;92.904;2023-12-20T03:40:13;101230.09;;;-22.25;34.34
42887;BME280;29032;56.028;92.904;2023-12-20T03:45:15;101226.72;;;-22.31;34.41
42887;BME280;29032;56.028;92.904;2023-12-20T03:50:17;101223.38;;;-22.37;34.03
42887;BME280;29032;56.028;92.904;2023-12-20T03:55:21;101215.56;;;-22.47;34.46
42887;BME280;29032;56.028;92.904;2023-12-20T04:00:23;101218.84;;;-22.36;35.31
42887;BME280;29032;56.028;92.904;2023-12-20T04:05:25;101208.63;;;-22.10;35.40
42887;BME280;29032;56.028;92.904;2023-12-20T04:10:29;101207.09;;;-21.84;34.12
42887;BME280;29032;56.028;92.904;2023-12-20T04:15:31;101207.00;;;-21.65;34.68
42887;BME280;29032;56.028;92.904;2023-12-20T04:20:34;101204.94;;;-21.68;33.98
42887;BME280;29032;56.028;92.904;2023-12-20T04:25:37;101199.06;;;-22.11;34.94
42887;BME280;29032;56.028;92.904;2023-12-20T04:30:40;101185.50;;;-22.10;34.74
42887;BME280;29032;56.028;92.904;2023-12-20T04:35:42;101179.09;;;-22.22;34.56
42887;BME280;29032;56.028;92.904;2023-12-20T04:40:45;101186.53;;;-22.57;36.08
42887;BME280;29032;56.028;92.904;2023-12-20T04:45:48;101178.84;;;-22.40;35.51
42887;BME280;29032;56.028;92.904;2023-12-20T04:50:50;101190.03;;;-22.10;35.54
42887;BME280;29032;56.028;92.904;2023-12-20T04:55:54;101178.56;;;-21.92;35.19
42887;BME280;29032;56.028;92.904;2023-12-20T05:00:56;101164.88;;;-21.99;35.64
42887;BME280;29032;56.028;92.904;2023-12-20T05:05:58;101169.22;;;-21.75;35.49
42887;BME280;29032;56.028;92.904;2023-12-20T05:11:02;101164.28;;;-21.41;35.06
42887;BME280;29032;56.028;92.904;2023-12-20T05:16:05;101166.75;;;-21.08;35.77
42887;BME280;29032;56.028;92.904;2023-12-20T05:21:08;101154.75;;;-21.06;34.86
42887;BME280;29032;56.028;92.904;2023-12-20T05:26:11;101157.91;;;-21.17;35.25
42887;BME280;29032;56.028;92.904;2023-12-20T05:31:14;101154.41;;;-21.27;35.83
42887;BME280;29032;56.028;92.904;2023-12-20T05:36:16;101148.28;;;-21.13;36.08
42887;BME280;29032;56.028;92.904;2023-12-20T05:41:20;101149.81;;;-20.76;35.31
42887;BME280;29032;56.028;92.904;2023-12-20T05:46:22;101137.56;;;-20.86;36.32
42887;BME280;29032;56.028;92.904;2023-12-20T05:51:24;101137.19;;;-20.93;37.17
42887;BME280;29032;56.028;92.904;2023-12-20T05:56:28;101125.69;;;-20.80;37.23
42887;BME280;29032;56.028;92.904;2023-12-20T06:01:31;101134.06;;;-20.50;36.22
42887;BME280;29032;56.028;92.904;2023-12-20T06:06:33;101126.59;;;-20.31;36.88
42887;BME280;29032;56.028;92.904;2023-12-20T06:11:37;101127.09;;;-20.29;36.62
42887;BME280;29032;56.028;92.904;2023-12-20T06:16:39;101131.09;;;-20.40;37.34
42887;BME280;29032;56.028;92.904;2023-12-20T06:21:41;101131.06;;;-20.18;37.87
42887;BME280;29032;56.028;92.904;2023-12-20T06:26:45;101133.88;;;-19.83;36.62
42887;BME280;29032;56.028;92.904;2023-12-20T06:31:47;101133.97;;;-19.57;37.70
42887;BME280;29032;56.028;92.904;2023-12-20T06:36:49;101137.63;;;-19.27;36.45
42887;BME280;29032;56.028;92.904;2023-12-20T06:41:53;101138.56;;;-19.06;37.38
42887;BME280;29032;56.028;92.904;2023-12-20T06:46:55;101144.53;;;-18.74;36.48
42887;BME280;29032;56.028;92.904;2023-12-20T06:51:57;101147.94;;;-18.48;36.54
42887;BME280;29032;56.028;92.904;2023-12-20T06:57:01;101158.16;;;-18.32;36.31
42887;BME280;29032;56.028;92.904;2023-12-20T07:02:03;101155.59;;;-18.29;36.41
42887;BME280;29032;56.028;92.904;2023-12-20T07:07:05;101151.34;;;-18.21;36.38
42887;BME280;29032;56.028;92.904;2023-12-20T07:12:09;101157.00;;;-18.14;36.53
42887;BME280;29032;56.028;92.904;2023-12-20T07:17:11;101162.00;;;-18.04;36.63
42887;BME280;29032;56.028;92.904;2023-12-20T07:22:13;101138.91;;;-18.08;36.49
42887;BME280;29032;56.028;92.904;2023-12-20T07:27:17;101155.56;;;-17.73;37.04
42887;BME280;29032;56.028;92.904;2023-12-20T07:32:19;101156.75;;;-17.92;36.86
42887;BME280;29032;56.028;92.904;2023-12-20T07:37:21;101167.59;;;-17.88;36.90
42887;BME280;29032;56.028;92.904;2023-12-20T07:42:25;101157.38;;;-17.86;37.80
42887;BME280;29032;56.028;92.904;2023-12-20T07:47:27;101170.13;;;-17.83;37.80
42887;BME280;29032;56.028;92.904;2023-12-20T07:52:30;101167.69;;;-17.76;37.35
42887;BME280;29032;56.028;92.904;2023-12-20T07:57:33;101178.13;;;-17.92;36.92
42887;BME280;29032;56.028;92.904;2023-12-20T08:02:36;101184.34;;;-18.17;37.85
42887;BME280;29032;56.028;92.904;2023-12-20T08:07:38;101182.66;;;-18.30;37.95
42887;BME280;29032;56.028;92.904;2023-12-20T08:12:41;101183.88;;;-18.19;37.81
42887;BME280;29032;56.028;92.904;2023-12-20T08:17:44;101189.00;;;-17.88;37.90
42887;BME280;29032;56.028;92.904;2023-12-20T08:22:46;101182.03;;;-17.80;37.80
42887;BME280;29032;56.028;92.904;2023-12-20T08:27:49;101189.00;;;-17.58;37.31
42887;BME280;29032;56.028;92.904;2023-12-20T08:32:52;101188.50;;;-17.52;37.85
42887;BME280;29032;56.028;92.904;2023-12-20T08:37:54;101188.13;;;-17.42;38.25
42887;BME280;29032;56.028;92.904;2023-12-20T08:42:58;101190.41;;;-17.23;37.66
42887;BME280;29032;56.028;92.904;2023-12-20T08:48:00;101199.63;;;-17.41;38.62
42887;BME280;29032;56.028;92.904;2023-12-20T08:53:02;101188.09;;;-17.33;38.23
42887;BME280;29032;56.028;92.904;2023-12-20T08:58:06;101206.00;;;-17.25;38.17
42887;BME280;29032;56.028;92.904;2023-12-20T09:03:08;101207.88;;;-17.25;38.15
42887;BME280;29032;56.028;92.904;2023-12-20T09:08:11;101207.94;;;-17.04;38.29
42887;BME280;29032;56.028;92.904;2023-12-20T09:13:14;101218.13;;;-16.98;38.66
42887;BME280;29032;56.028;92.904;2023-12-20T09:18:16;101216.81;;;-16.92;38.36
42887;BME280;29032;56.028;92.904;2023-12-20T09:23:19;101221.53;;;-16.89;38.36
42887;BME280;29032;56.028;92.904;2023-12-20T09:28:22;101223.16;;;-16.75;38.37
42887;BME280;29032;56.028;92.904;2023-12-20T09:33:25;101220.59;;;-16.93;38.15
42887;BME280;29032;56.028;92.904;2023-12-20T09:38:27;101221.13;;;-16.78;38.43
42887;BME280;29032;56.028;92.904;2023-12-20T09:43:31;101221.19;;;-16.66;38.40
42887;BME280;29032;56.028;92.904;2023-12-20T09:48:37;101212.53;;;-16.63;38.95
42887;BME280;29032;56.028;92.904;2023-12-20T09:53:41;101215.66;;;-16.61;38.28
42887;BME280;29032;56.028;92.904;2023-12-20T09:58:46;101217.09;;;-16.43;38.57
42887;BME280;29032;56.028;92.904;2023-12-20T10:03:48;101223.41;;;-16.27;38.49
42887;BME280;29032;56.028;92.904;2023-12-20T10:08:53;101221.84;;;-16.28;38.43
42887;BME280;29032;56.028;92.904;2023-12-20T10:14:01;101221.91;;;-16.36;39.24
42887;BME280;29032;56.028;92.904;2023-12-20T10:19:03;101226.03;;;-16.39;38.84
42887;BME280;29032;56.028;92.904;2023-12-20T10:24:06;101228.63;;;-16.30;38.76
42887;BME280;29032;56.028;92.904;2023-12-20T10:29:10;101235.25;;;-16.28;38.92
42887;BME280;29032;56.028;92.904;2023-12-20T10:34:12;101230.78;;;-16.23;39.03
42887;BME280;29032;56.028;92.904;2023-12-20T10:39:15;101241.44;;;-16.03;38.37
42887;BME280;29032;56.028;92.904;2023-12-20T10:44:18;101238.69;;;-15.82;38.75
42887;BME280;29032;56.028;92.904;2023-12-20T10:49:21;101248.50;;;-15.98;38.30
42887;BME280;29032;56.028;92.904;2023-12-20T10:54:24;101237.88;;;-15.94;38.80
42887;BME280;29032;56.028;92.904;2023-12-20T10:59:28;101237.03;;;-15.86;39.06
42887;BME280;29032;56.028;92.904;2023-12-20T11:04:38;101235.53;;;-15.96;39.16
42887;BME280;29032;56.028;92.904;2023-12-20T11:09:45;101236.44;;;-15.92;39.84
42887;BME280;29032;56.028;92.904;2023-12-20T11:14:52;101232.78;;;-15.75;39.26
42887;BME280;29032;56.028;92.904;2023-12-20T11:20:06;101232.63;;;-15.58;39.38
42887;BME280;29032;56.028;92.904;2023-12-20T11:25:10;101235.38;;;-15.79;39.37
42887;BME280;29032;56.028;92.904;2023-12-20T11:30:14;101237.81;;;-15.74;39.72
42887;BME280;29032;56.028;92.904;2023-12-20T11:35:18;101241.53;;;-15.54;39.77
42887;BME280;29032;56.028;92.904;2023-12-20T11:40:20;101230.03;;;-15.54;39.28
42887;BME280;29032;56.028;92.904;2023-12-20T11:45:27;101239.13;;;-15.34;39.51
42887;BME280;29032;56.028;92.904;2023-12-20T11:50:29;101239.56;;;-15.32;39.89
42887;BME280;29032;56.028;92.904;2023-12-20T11:55:31;101246.16;;;-15.30;39.45
42887;BME280;29032;56.028;92.904;2023-12-20T12:00:37;101240.81;;;-15.30;39.80
42887;BME280;29032;56.028;92.904;2023-12-20T12:05:39;101246.16;;;-15.30;39.72
42887;BME280;29032;56.028;92.904;2023-12-20T12:10:41;101249.84;;;-15.10;39.69
42887;BME280;29032;56.028;92.904;2023-12-20T12:15:45;101238.75;;;-14.84;39.57
42887;BME280;29032;56.028;92.904;2023-12-20T12:20:47;101235.69;;;-14.70;39.47
42887;BME280;29032;56.028;92.904;2023-12-20T12:25:50;101253.81;;;-14.55;39.11
42887;BME280;29032;56.028;92.904;2023-12-20T12:30:59;101254.78;;;-14.47;39.35
42887;BME280;29032;56.028;92.904;2023-12-20T12:36:02;101256.84;;;-14.56;39.70
42887;BME280;29032;56.028;92.904;2023-12-20T12:41:04;101250.69;;;-14.57;39.74
42887;BME280;29032;56.028;92.904;2023-12-20T12:46:08;101243.84;;;-14.54;39.75
42887;BME280;29032;56.028;92.904;2023-12-20T12:51:10;101242.59;;;-14.45;39.40
42887;BME280;29032;56.028;92.904;2023-12-20T12:56:13;101239.81;;;-14.33;39.66
42887;BME280;29032;56.028;92.904;2023-12-20T13:01:17;101245.59;;;-14.46;39.77
42887;BME280;29032;56.028;92.904;2023-12-20T13:06:19;101236.09;;;-14.44;39.98
42887;BME280;29032;56.028;92.904;2023-12-20T13:11:22;101232.72;;;-14.25;40.03
42887;BME280;29032;56.028;92.904;2023-12-20T13:16:26;101239.94;;;-14.01;40.13
42887;BME280;29032;56.028;92.904;2023-12-20T13:21:28;101235.41;;;-13.97;39.90
42887;BME280;29032;56.028;92.904;2023-12-20T13:26:30;101232.25;;;-14.15;40.55
42887;BME280;29032;56.028;92.904;2023-12-20T13:31:34;101225.75;;;-14.14;40.41
42887;BME280;29032;56.028;92.904;2023-12-20T13:36:36;101238.44;;;-13.98;40.59
42887;BME280;29032;56.028;92.904;2023-12-20T13:41:39;101231.22;;;-13.82;40.19
42887;BME280;29032;56.028;92.904;2023-12-20T13:46:42;101232.06;;;-13.78;40.05
42887;BME280;29032;56.028;92.904;2023-12-20T13:51:44;101235.59;;;-13.90;40.91
42887;BME280;29032;56.028;92.904;2023-12-20T13:56:47;101235.78;;;-13.83;40.58
42887;BME280;29032;56.028;92.904;2023-12-20T14:01:51;101231.16;;;-13.98;41.00
42887;BME280;29032;56.028;92.904;2023-12-20T14:06:53;101230.94;;;-14.21;41.20
42887;BME280;29032;56.028;92.904;2023-12-20T14:11:55;101220.56;;;-14.35;41.94
42887;BME280;29032;56.028;92.904;2023-12-20T14:16:59;101222.53;;;-14.19;42.15
42887;BME280;29032;56.028;92.904;2023-12-20T14:22:01;101228.06;;;-13.84;41.64
42887;BME280;29032;56.028;92.904;2023-12-20T14:27:03;101225.66;;;-13.58;41.43
42887;BME280;29032;56.028;92.904;2023-12-20T14:32:07;101216.09;;;-13.55;41.35
42887;BME280;29032;56.028;92.904;2023-12-20T14:37:09;101212.63;;;-13.87;41.90
42887;BME280;29032;56.028;92.904;2023-12-20T14:42:12;101221.91;;;-13.69;41.66
42887;BME280;29032;56.028;92.904;2023-12-20T14:47:15;101216.03;;;-13.59;41.94
42887;BME280;29032;56.028;92.904;2023-12-20T14:52:18;101211.25;;;-13.50;41.63
42887;BME280;29032;56.028;92.904;2023-12-20T14:57:20;101193.41;;;-13.23;41.62
42887;BME280;29032;56.028;92.904;2023-12-20T15:02:24;101211.50;;;-12.88;41.20
42887;BME280;29032;56.028;92.904;2023-12-20T15:07:26;101205.38;;;-12.69;40.90
42887;BME280;29032;56.028;92.904;2023-12-20T15:12:28;101207.22;;;-12.73;40.80
42887;BME280;29032;56.028;92.904;2023-12-20T15:17:32;101198.97;;;-12.80;40.95
42887;BME280;29032;56.028;92.904;2023-12-20T15:22:34;101192.41;;;-12.99;41.27
42887;BME280;29032;56.028;92.904;2023-12-20T15:27:37;101194.69;;;-13.01;41.87
42887;BME280;29032;56.028;92.904;2023-12-20T15:32:40;101190.22;;;-12.93;41.30
42887;BME280;29032;56.028;92.904;2023-12-20T15:37:43;101201.66;;;-12.80;41.24
42887;BME280;29032;56.028;92.904;2023-12-20T15:42:45;101206.63;;;-12.63;41.18
42887;BME280;29032;56.028;92.904;2023-12-20T15:47:48;101190.69;;;-12.72;41.00
42887;BME280;29032;56.028;92.904;2023-12-20T15:52:51;101191.88;;;-12.88;41.59
42887;BME280;29032;56.028;92.904;2023-12-20T15:57:53;101186.97;;;-13.02;42.13
42887;BME280;29032;56.028;92.904;2023-12-20T16:02:56;101188.31;;;-12.93;41.73
42887;BME280;29032;56.028;92.904;2023-12-20T16:07:59;101202.09;;;-12.78;41.81
42887;BME280;29032;56.028;92.904;2023-12-20T16:13:01;101197.25;;;-12.88;42.21
42887;BME280;29032;56.028;92.904;2023-12-20T16:18:05;101192.88;;;-12.77;41.97
42887;BME280;29032;56.028;92.904;2023-12-20T16:23:08;101197.44;;;-12.62;41.44
42887;BME280;29032;56.028;92.904;2023-12-20T16:28:10;101188.78;;;-12.52;41.63
42887;BME280;29032;56.028;92.904;2023-12-20T16:33:14;101197.88;;;-12.41;41.79
42887;BME280;29032;56.028;92.904;2023-12-20T16:38:16;101184.38;;;-12.41;41.16
42887;BME280;29032;56.028;92.904;2023-12-20T16:43:18;101189.00;;;-12.41;41.28
42887;BME280;29032;56.028;92.904;2023-12-20T16:48:22;101191.34;;;-12.40;42.20
42887;BME280;29032;56.028;92.904;2023-12-20T16:53:24;101180.75;;;-12.29;41.69
42887;BME280;29032;56.028;92.904;2023-12-20T16:58:26;101180.50;;;-12.20;42.05
42887;BME280;29032;56.028;92.904;2023-12-20T17:03:30;101179.53;;;-12.12;41.83
42887;BME280;29032;56.028;92.904;2023-12-20T17:08:33;101177.25;;;-12.10;41.81
42887;BME280;29032;56.028;92.904;2023-12-20T17:13:35;101178.53;;;-12.04;41.93
42887;BME280;29032;56.028;92.904;2023-12-20T17:18:39;101187.56;;;-11.93;41.63
42887;BME280;29032;56.028;92.904;2023-12-20T17:23:41;101181.34;;;-11.97;41.36
42887;BME280;29032;56.028;92.904;2023-12-20T17:28:43;101182.16;;;-11.93;41.48
42887;BME280;29032;56.028;92.904;2023-12-20T17:33:47;101184.69;;;-11.81;41.21
42887;BME280;29032;56.028;92.904;2023-12-20T17:38:49;101154.09;;;-11.88;42.26
42887;BME280;29032;56.028;92.904;2023-12-20T17:43:51;101161.75;;;-11.67;41.52
42887;BME280;29032;56.028;92.904;2023-12-20T17:48:55;101150.97;;;-11.67;41.75
42887;BME280;29032;56.028;92.904;2023-12-20T17:53:57;101157.63;;;-11.61;41.21
42887;BME280;29032;56.028;92.904;2023-12-20T17:58:59;101153.94;;;-11.72;41.94
42887;BME280;29032;56.028;92.904;2023-12-20T18:04:03;101143.78;;;-11.83;41.95
42887;BME280;29032;56.028;92.904;2023-12-20T18:09:06;101140.34;;;-11.80;41.74
42887;BME280;29032;56.028;92.904;2023-12-20T18:14:08;101133.88;;;-11.75;41.55
42887;BME280;29032;56.028;92.904;2023-12-20T18:19:11;101132.78;;;-11.70;41.74
42887;BME280;29032;56.028;92.904;2023-12-20T18:24:14;101138.25;;;-11.90;42.17
42887;BME280;29032;56.028;92.904;2023-12-20T18:29:16;101133.38;;;-11.81;41.98
42887;BME280;29032;56.028;92.904;2023-12-20T18:34:20;101139.63;;;-11.76;42.17
42887;BME280;29032;56.028;92.904;2023-12-20T18:39:22;101131.41;;;-11.84;42.54
42887;BME280;29032;56.028;92.904;2023-12-20T18:44:24;101132.19;;;-11.83;42.31
42887;BME280;29032;56.028;92.904;2023-12-20T18:49:28;101127.41;;;-11.70;42.73
42887;BME280;29032;56.028;92.904;2023-12-20T18:54:30;101141.66;;;-11.70;42.14
42887;BME280;29032;56.028;92.904;2023-12-20T18:59:33;101144.00;;;-11.68;42.38
42887;BME280;29032;56.028;92.904;2023-12-20T19:04:36;101139.75;;;-11.69;41.94
42887;BME280;29032;56.028;92.904;2023-12-20T19:09:38;101133.75;;;-11.82;42.94
42887;BME280;29032;56.028;92.904;2023-12-20T19:14:41;101135.19;;;-11.92;43.52
42887;BME280;29032;56.028;92.904;2023-12-20T19:19:44;101131.66;;;-11.69;43.21
42887;BME280;29032;56.028;92.904;2023-12-20T19:24:46;101127.19;;;-11.58;42.54
42887;BME280;29032;56.028;92.904;2023-12-20T19:29:49;101132.16;;;-11.60;43.53
42887;BME280;29032;56.028;92.904;2023-12-20T19:34:52;101136.59;;;-11.48;43.19
42887;BME280;29032;56.028;92.904;2023-12-20T19:39:55;101135.38;;;-11.51;43.23
42887;BME280;29032;56.028;92.904;2023-12-20T19:44:57;101134.81;;;-11.37;42.66
42887;BME280;29032;56.028;92.904;2023-12-20T19:50:01;101140.09;;;-11.21;42.91
42887;BME280;29032;56.028;92.904;2023-12-20T19:55:04;101141.75;;;-11.13;42.62
42887;BME280;29032;56.028;92.904;2023-12-20T20:00:07;101138.47;;;-11.26;42.85
42887;BME280;29032;56.028;92.904;2023-12-20T20:05:19;101145.44;;;-11.25;42.93
42887;BME280;29032;56.028;92.904;2023-12-20T20:10:22;101138.41;;;-11.30;43.31
42887;BME280;29032;56.028;92.904;2023-12-20T20:15:24;101133.56;;;-11.17;42.93
42887;BME280;29032;56.028;92.904;2023-12-20T20:20:27;101144.19;;;-11.01;43.41
42887;BME280;29032;56.028;92.904;2023-12-20T20:25:30;101140.03;;;-10.95;43.04
42887;BME280;29032;56.028;92.904;2023-12-20T20:30:32;101140.72;;;-11.02;43.16
42887;BME280;29032;56.028;92.904;2023-12-20T20:35:36;101142.53;;;-11.13;42.89
42887;BME280;29032;56.028;92.904;2023-12-20T20:40:38;101148.69;;;-11.39;44.22
42887;BME280;29032;56.028;92.904;2023-12-20T20:45:40;101149.28;;;-11.26;43.55
42887;BME280;29032;56.028;92.904;2023-12-20T20:50:44;101152.56;;;-11.13;43.82
42887;BME280;29032;56.028;92.904;2023-12-20T20:55:46;101148.72;;;-11.09;43.68
42887;BME280;29032;56.028;92.904;2023-12-20T21:00:48;101149.66;;;-10.98;43.60
42887;BME280;29032;56.028;92.904;2023-12-20T21:05:52;101159.59;;;-11.05;43.36
42887;BME280;29032;56.028;92.904;2023-12-20T21:10:54;101136.94;;;-11.23;44.01
42887;BME280;29032;56.028;92.904;2023-12-20T21:15:56;101144.09;;;-11.08;43.70
42887;BME280;29032;56.028;92.904;2023-12-20T21:21:00;101139.63;;;-10.97;43.75
42887;BME280;29032;56.028;92.904;2023-12-20T21:26:03;101152.06;;;-10.92;43.38
42887;BME280;29032;56.028;92.904;2023-12-20T21:31:05;101152.50;;;-10.87;43.24
42887;BME280;29032;56.028;92.904;2023-12-20T21:36:09;101151.13;;;-10.74;43.39
42887;BME280;29032;56.028;92.904;2023-12-20T21:41:11;101153.13;;;-10.67;42.96
42887;BME280;29032;56.028;92.904;2023-12-20T21:46:13;101149.97;;;-10.73;43.54
42887;BME280;29032;56.028;92.904;2023-12-20T21:51:17;101154.56;;;-10.77;43.70
42887;BME280;29032;56.028;92.904;2023-12-20T21:56:19;101155.66;;;-10.81;43.38
42887;BME280;29032;56.028;92.904;2023-12-20T22:01:21;101149.38;;;-10.89;43.91
42887;BME280;29032;56.028;92.904;2023-12-20T22:06:25;101144.56;;;-10.73;44.03
42887;BME280;29032;56.028;92.904;2023-12-20T22:11:27;101146.06;;;-10.79;44.19
42887;BME280;29032;56.028;92.904;2023-12-20T22:16:29;101161.81;;;-10.84;44.50
42887;BME280;29032;56.028;92.904;2023-12-20T22:21:33;101163.75;;;-10.85;44.16
42887;BME280;29032;56.028;92.904;2023-12-20T22:26:35;101157.50;;;-10.89;44.72
42887;BME280;29032;56.028;92.904;2023-12-20T22:31:38;101156.13;;;-10.76;44.06
42887;BME280;29032;56.028;92.904;2023-12-20T22:36:41;101155.38;;;-10.73;44.05
42887;BME280;29032;56.028;92.904;2023-12-20T22:41:44;101166.09;;;-10.80;44.14
42887;BME280;29032;56.028;92.904;2023-12-20T22:46:46;101152.09;;;-10.89;43.98
42887;BME280;29032;56.028;92.904;2023-12-20T22:51:50;101155.63;;;-10.85;43.89
42887;BME280;29032;56.028;92.904;2023-12-20T22:56:52;101169.88;;;-10.88;44.70
42887;BME280;29032;56.028;92.904;2023-12-20T23:01:54;101173.09;;;-10.79;45.37
42887;BME280;29032;56.028;92.904;2023-12-20T23:06:58;101163.59;;;-10.65;45.21
42887;BME280;29032;56.028;92.904;2023-12-20T23:12:00;101180.53;;;-10.38;44.96
42887;BME280;29032;56.028;92.904;2023-12-20T23:17:03;101163.56;;;-10.35;44.97
42887;BME280;29032;56.028;92.904;2023-12-20T23:22:06;101160.56;;;-10.27;44.93
42887;BME280;29032;56.028;92.904;2023-12-20T23:27:09;101159.88;;;-10.17;45.49
42887;BME280;29032;56.028;92.904;2023-12-20T23:32:11;101166.25;;;-9.98;44.68
42887;BME280;29032;56.028;92.904;2023-12-20T23:37:14;101168.00;;;-9.79;44.86
42887;BME280;29032;56.028;92.904;2023-12-20T23:42:17;101157.63;;;-9.70;43.86
42887;BME280;29032;56.028;92.904;2023-12-20T23:47:19;101152.22;;;-9.67;43.90
42887;BME280;29032;56.028;92.904;2023-12-20T23:52:22;101153.44;;;-9.61;43.84
42887;BME280;29032;56.028;92.904;2023-12-20T23:57:25;101144.78;;;-9.80;43.64
